Terminal Aerodrome Forecast
Issued by NWS Midland/Odessa, TX

Home | Current Version | Previous Version | Text Only | Print | Product List | Glossary On
Versions: 1 2 3 4 5 6 7 8 9 10 11 12 13
648
FTUS44 KMAF 252353
TAFMAF
TAF
KMAF 252353Z 2600/2624 09009KT P6SM SCT080 SCT200
     FM260900 17008KT P6SM FEW200
     FM262100 12008KT P6SM SCT060 SCT250=

USA.gov is the U.S. government's official web portal to all federal, state and local government web resources and services.